Terminal Aerodrome Forecast
Issued by NWS Louisville, KY

Home | Current Version | Previous Version | Text Only | Print | Product List | Glossary On
Versions: 1 2 3 4 5 6 7 8 9 10 11 12 13 14 15 16 17 18
000
FTUS43 KLMK 262300
TAFBWG
TAF
KBWG 262325Z 2700/2724 27005KT 5SM -SHSN OVC016
      TEMPO 2700/2702 2SM -SN SCT016 OVC025
     FM270600 VRB03KT 3SM -SN BKN009
     FM271500 35005KT P6SM BKN015=

USA.gov is the U.S. government's official web portal to all federal, state and local government web resources and services.